sensor_id;sensor_type;location;lat;lon;timestamp;pressure;altitude;pressure_sealevel;temperature;humidity
71465;BME280;59274;49.874;9.154;2023-05-09T00:02:24;100642.09;;;14.31;100.00
71465;BME280;59274;49.874;9.154;2023-05-09T00:04:49;100641.31;;;14.27;100.00
71465;BME280;59274;49.874;9.154;2023-05-09T00:07:16;100640.91;;;14.32;100.00
71465;BME280;59274;49.874;9.154;2023-05-09T00:09:41;100641.31;;;14.31;100.00
71465;BME280;59274;49.874;9.154;2023-05-09T00:12:06;100647.16;;;14.29;100.00
71465;BME280;59274;49.874;9.154;2023-05-09T00:14:32;100640.91;;;14.29;100.00
71465;BME280;59274;49.874;9.154;2023-05-09T00:16:58;100636.22;;;14.29;100.00
71465;BME280;59274;49.874;9.154;2023-05-09T00:19:24;100646.00;;;14.27;100.00
71465;BME280;59274;49.874;9.154;2023-05-09T00:21:49;100635.44;;;14.29;100.00
71465;BME280;59274;49.874;9.154;2023-05-09T00:24:15;100637.38;;;14.28;100.00
71465;BME280;59274;49.874;9.154;2023-05-09T00:26:40;100636.25;;;14.33;100.00
71465;BME280;59274;49.874;9.154;2023-05-09T00:29:05;100630.75;;;14.29;100.00
71465;BME280;59274;49.874;9.154;2023-05-09T00:31:31;100619.03;;;14.29;100.00
71465;BME280;59274;49.874;9.154;2023-05-09T00:33:56;100610.47;;;14.27;100.00
71465;BME280;59274;49.874;9.154;2023-05-09T00:36:22;100610.06;;;14.28;100.00
71465;BME280;59274;49.874;9.154;2023-05-09T00:38:48;100608.88;;;14.22;100.00
71465;BME280;59274;49.874;9.154;2023-05-09T00:41:13;100608.91;;;14.26;100.00
71465;BME280;59274;49.874;9.154;2023-05-09T00:43:39;100606.97;;;14.26;100.00
71465;BME280;59274;49.874;9.154;2023-05-09T00:46:04;100603.44;;;14.26;100.00
71465;BME280;59274;49.874;9.154;2023-05-09T00:48:30;100604.97;;;14.23;100.00
71465;BME280;59274;49.874;9.154;2023-05-09T00:50:55;100601.47;;;14.19;100.00
71465;BME280;59274;49.874;9.154;2023-05-09T00:53:21;100596.78;;;14.20;100.00
71465;BME280;59274;49.874;9.154;2023-05-09T00:55:47;100597.56;;;14.24;100.00
71465;BME280;59274;49.874;9.154;2023-05-09T00:58:13;100597.59;;;14.27;100.00
71465;BME280;59274;49.874;9.154;2023-05-09T01:00:38;100587.81;;;14.19;100.00
71465;BME280;59274;49.874;9.154;2023-05-09T01:03:04;100589.75;;;14.15;100.00
71465;BME280;59274;49.874;9.154;2023-05-09T01:05:39;100579.22;;;14.06;100.00
71465;BME280;59274;49.874;9.154;2023-05-09T01:08:28;100580.38;;;14.09;100.00
71465;BME280;59274;49.874;9.154;2023-05-09T01:11:59;100578.03;;;14.11;100.00
71465;BME280;59274;49.874;9.154;2023-05-09T01:14:07;100572.56;;;14.11;100.00
71465;BME280;59274;49.874;9.154;2023-05-09T01:16:47;100574.91;;;14.05;100.00
71465;BME280;59274;49.874;9.154;2023-05-09T01:22:00;100574.91;;;13.98;100.00
71465;BME280;59274;49.874;9.154;2023-05-09T01:29:37;100576.47;;;13.99;100.00
71465;BME280;59274;49.874;9.154;2023-05-09T01:32:09;100568.63;;;13.94;100.00
71465;BME280;59274;49.874;9.154;2023-05-09T01:34:37;100572.53;;;13.93;100.00
71465;BME280;59274;49.874;9.154;2023-05-09T01:37:04;100565.53;;;13.96;100.00
71465;BME280;59274;49.874;9.154;2023-05-09T01:39:33;100572.53;;;13.90;100.00
71465;BME280;59274;49.874;9.154;2023-05-09T01:42:01;100555.38;;;13.89;100.00
71465;BME280;59274;49.874;9.154;2023-05-09T01:44:34;100561.22;;;13.91;100.00
71465;BME280;59274;49.874;9.154;2023-05-09T01:47:03;100561.59;;;13.90;100.00
71465;BME280;59274;49.874;9.154;2023-05-09T01:49:31;100562.41;;;13.90;100.00
71465;BME280;59274;49.874;9.154;2023-05-09T01:52:00;100560.06;;;13.92;100.00
71465;BME280;59274;49.874;9.154;2023-05-09T01:54:28;100566.69;;;13.91;100.00
71465;BME280;59274;49.874;9.154;2023-05-09T01:56:55;100572.53;;;13.90;100.00
71465;BME280;59274;49.874;9.154;2023-05-09T01:59:22;100571.75;;;13.89;100.00
71465;BME280;59274;49.874;9.154;2023-05-09T02:01:48;100565.91;;;13.94;100.00
71465;BME280;59274;49.874;9.154;2023-05-09T02:04:15;100565.91;;;13.91;100.00
71465;BME280;59274;49.874;9.154;2023-05-09T02:06:42;100559.66;;;13.94;100.00
71465;BME280;59274;49.874;9.154;2023-05-09T02:09:09;100556.53;;;13.95;100.00
71465;BME280;59274;49.874;9.154;2023-05-09T02:11:35;100561.22;;;13.95;100.00
71465;BME280;59274;49.874;9.154;2023-05-09T02:14:01;100549.91;;;13.96;100.00
71465;BME280;59274;49.874;9.154;2023-05-09T02:16:27;100550.31;;;13.95;100.00
71465;BME280;59274;49.874;9.154;2023-05-09T02:18:55;100547.56;;;13.91;100.00
71465;BME280;59274;49.874;9.154;2023-05-09T02:21:21;100551.47;;;13.90;100.00
71465;BME280;59274;49.874;9.154;2023-05-09T02:23:46;100546.38;;;13.89;100.00
71465;BME280;59274;49.874;9.154;2023-05-09T02:26:12;100545.59;;;13.88;100.00
71465;BME280;59274;49.874;9.154;2023-05-09T02:28:38;100547.56;;;13.88;100.00
71465;BME280;59274;49.874;9.154;2023-05-09T02:31:07;100543.66;;;13.85;100.00
71465;BME280;59274;49.874;9.154;2023-05-09T02:33:34;100546.00;;;13.87;100.00
71465;BME280;59274;49.874;9.154;2023-05-09T02:36:01;100538.97;;;13.86;100.00
71465;BME280;59274;49.874;9.154;2023-05-09T02:38:26;100545.97;;;13.80;100.00
71465;BME280;59274;49.874;9.154;2023-05-09T02:40:52;100545.19;;;13.76;100.00
71465;BME280;59274;49.874;9.154;2023-05-09T02:43:17;100537.00;;;13.76;100.00
71465;BME280;59274;49.874;9.154;2023-05-09T02:45:43;100537.78;;;13.80;100.00
71465;BME280;59274;49.874;9.154;2023-05-09T02:48:08;100533.88;;;13.73;100.00
71465;BME280;59274;49.874;9.154;2023-05-09T02:50:34;100528.41;;;13.73;100.00
71465;BME280;59274;49.874;9.154;2023-05-09T02:52:59;100525.28;;;13.68;100.00
71465;BME280;59274;49.874;9.154;2023-05-09T02:55:25;100526.09;;;13.76;100.00
71465;BME280;59274;49.874;9.154;2023-05-09T02:57:50;100529.19;;;13.70;100.00
71465;BME280;59274;49.874;9.154;2023-05-09T03:00:16;100520.59;;;13.65;100.00
71465;BME280;59274;49.874;9.154;2023-05-09T03:02:42;100518.63;;;13.65;100.00
71465;BME280;59274;49.874;9.154;2023-05-09T03:05:07;100517.06;;;13.64;100.00
71465;BME280;59274;49.874;9.154;2023-05-09T03:07:33;100519.41;;;13.59;100.00
71465;BME280;59274;49.874;9.154;2023-05-09T03:09:59;100509.25;;;13.59;100.00
71465;BME280;59274;49.874;9.154;2023-05-09T03:12:24;100520.19;;;13.59;100.00
71465;BME280;59274;49.874;9.154;2023-05-09T03:14:50;100521.38;;;13.62;100.00
71465;BME280;59274;49.874;9.154;2023-05-09T03:17:15;100517.84;;;13.54;100.00
71465;BME280;59274;49.874;9.154;2023-05-09T03:19:45;100513.88;;;13.41;100.00
71465;BME280;59274;49.874;9.154;2023-05-09T03:22:11;100518.16;;;13.39;100.00
71465;BME280;59274;49.874;9.154;2023-05-09T03:24:36;100517.75;;;13.33;100.00
71465;BME280;59274;49.874;9.154;2023-05-09T03:27:01;100516.56;;;13.30;100.00
71465;BME280;59274;49.874;9.154;2023-05-09T03:29:27;100513.03;;;13.23;100.00
71465;BME280;59274;49.874;9.154;2023-05-09T03:31:52;100506.78;;;13.22;100.00
71465;BME280;59274;49.874;9.154;2023-05-09T03:34:18;100502.13;;;13.19;100.00
71465;BME280;59274;49.874;9.154;2023-05-09T03:36:43;100498.56;;;13.15;100.00
71465;BME280;59274;49.874;9.154;2023-05-09T03:39:09;100493.53;;;13.14;100.00
71465;BME280;59274;49.874;9.154;2023-05-09T03:41:35;100493.47;;;13.10;100.00
71465;BME280;59274;49.874;9.154;2023-05-09T03:44:04;100490.34;;;13.12;100.00
71465;BME280;59274;49.874;9.154;2023-05-09T03:46:29;100493.44;;;13.03;100.00
71465;BME280;59274;49.874;9.154;2023-05-09T03:48:55;100487.97;;;13.00;100.00
71465;BME280;59274;49.874;9.154;2023-05-09T03:51:20;100490.69;;;13.00;100.00
71465;BME280;59274;49.874;9.154;2023-05-09T03:53:46;100491.06;;;13.02;100.00
71465;BME280;59274;49.874;9.154;2023-05-09T03:56:12;100486.44;;;13.06;100.00
71465;BME280;59274;49.874;9.154;2023-05-09T03:58:38;100489.16;;;13.06;100.00
71465;BME280;59274;49.874;9.154;2023-05-09T04:01:03;100497.34;;;13.09;100.00
71465;BME280;59274;49.874;9.154;2023-05-09T04:03:29;100496.56;;;13.09;100.00
71465;BME280;59274;49.874;9.154;2023-05-09T04:05:55;100498.22;;;13.24;100.00
71465;BME280;59274;49.874;9.154;2023-05-09T04:08:20;100494.38;;;13.28;100.00
71465;BME280;59274;49.874;9.154;2023-05-09T04:10:46;100491.19;;;13.23;100.00
71465;BME280;59274;49.874;9.154;2023-05-09T04:13:11;100495.91;;;13.26;100.00
71465;BME280;59274;49.874;9.154;2023-05-09T04:15:36;100486.97;;;13.32;100.00
71465;BME280;59274;49.874;9.154;2023-05-09T04:18:02;100491.63;;;13.32;100.00
71465;BME280;59274;49.874;9.154;2023-05-09T04:20:27;100484.22;;;13.36;100.00
71465;BME280;59274;49.874;9.154;2023-05-09T04:22:53;100475.69;;;13.45;100.00
71465;BME280;59274;49.874;9.154;2023-05-09T04:25:18;100474.94;;;13.58;100.00
71465;BME280;59274;49.874;9.154;2023-05-09T04:27:44;100473.81;;;13.70;100.00
71465;BME280;59274;49.874;9.154;2023-05-09T04:30:10;100478.88;;;13.75;100.00
71465;BME280;59274;49.874;9.154;2023-05-09T04:32:36;100482.03;;;13.88;100.00
71465;BME280;59274;49.874;9.154;2023-05-09T04:35:03;100481.63;;;13.86;100.00
71465;BME280;59274;49.874;9.154;2023-05-09T04:37:28;100478.50;;;13.87;100.00
71465;BME280;59274;49.874;9.154;2023-05-09T04:39:55;100480.06;;;13.81;100.00
71465;BME280;59274;49.874;9.154;2023-05-09T04:42:21;100488.28;;;13.78;100.00
71465;BME280;59274;49.874;9.154;2023-05-09T04:44:46;100489.41;;;13.80;100.00
71465;BME280;59274;49.874;9.154;2023-05-09T04:47:13;100485.91;;;13.76;100.00
71465;BME280;59274;49.874;9.154;2023-05-09T04:49:39;100481.25;;;13.77;100.00
71465;BME280;59274;49.874;9.154;2023-05-09T04:52:04;100482.41;;;13.83;100.00
71465;BME280;59274;49.874;9.154;2023-05-09T04:54:31;100488.28;;;13.88;100.00
71465;BME280;59274;49.874;9.154;2023-05-09T04:56:56;100479.28;;;13.88;100.00
71465;BME280;59274;49.874;9.154;2023-05-09T04:59:22;100479.31;;;13.91;100.00
71465;BME280;59274;49.874;9.154;2023-05-09T05:01:47;100482.81;;;14.02;100.00
71465;BME280;59274;49.874;9.154;2023-05-09T05:04:13;100485.94;;;14.08;100.00
71465;BME280;59274;49.874;9.154;2023-05-09T05:06:38;100491.81;;;14.10;100.00
71465;BME280;59274;49.874;9.154;2023-05-09T05:09:03;100487.91;;;14.11;100.00
71465;BME280;59274;49.874;9.154;2023-05-09T05:11:30;100487.91;;;14.18;100.00
71465;BME280;59274;49.874;9.154;2023-05-09T05:13:55;100479.72;;;14.25;100.00
71465;BME280;59274;49.874;9.154;2023-05-09T05:16:20;100475.44;;;14.28;100.00
71465;BME280;59274;49.874;9.154;2023-05-09T05:18:46;100473.84;;;14.30;100.00
71465;BME280;59274;49.874;9.154;2023-05-09T05:21:11;100473.06;;;14.33;100.00
71465;BME280;59274;49.874;9.154;2023-05-09T05:23:37;100460.56;;;14.22;100.00
71465;BME280;59274;49.874;9.154;2023-05-09T05:26:02;100459.41;;;14.26;100.00
71465;BME280;59274;49.874;9.154;2023-05-09T05:28:28;100457.84;;;14.32;100.00
71465;BME280;59274;49.874;9.154;2023-05-09T05:30:53;100446.94;;;14.39;100.00
71465;BME280;59274;49.874;9.154;2023-05-09T05:33:19;100452.00;;;14.55;100.00
71465;BME280;59274;49.874;9.154;2023-05-09T05:35:44;100453.13;;;14.65;100.00
71465;BME280;59274;49.874;9.154;2023-05-09T05:38:10;100440.19;;;14.79;100.00
71465;BME280;59274;49.874;9.154;2023-05-09T05:40:35;100441.78;;;14.80;100.00
71465;BME280;59274;49.874;9.154;2023-05-09T05:43:01;100450.75;;;14.84;100.00
71465;BME280;59274;49.874;9.154;2023-05-09T05:45:26;100450.72;;;14.88;100.00
71465;BME280;59274;49.874;9.154;2023-05-09T05:47:53;100446.03;;;14.85;100.00
71465;BME280;59274;49.874;9.154;2023-05-09T05:50:20;100453.06;;;14.86;100.00
71465;BME280;59274;49.874;9.154;2023-05-09T05:52:45;100457.78;;;14.78;100.00
71465;BME280;59274;49.874;9.154;2023-05-09T05:55:11;100455.06;;;14.75;100.00
71465;BME280;59274;49.874;9.154;2023-05-09T05:57:36;100449.22;;;14.73;100.00
71465;BME280;59274;49.874;9.154;2023-05-09T06:00:04;100445.72;;;14.69;100.00
71465;BME280;59274;49.874;9.154;2023-05-09T06:02:31;100434.75;;;14.79;100.00
71465;BME280;59274;49.874;9.154;2023-05-09T06:04:57;100440.97;;;14.80;100.00
71465;BME280;59274;49.874;9.154;2023-05-09T06:07:22;100441.41;;;14.75;100.00
71465;BME280;59274;49.874;9.154;2023-05-09T06:09:48;100438.63;;;14.89;100.00
71465;BME280;59274;49.874;9.154;2023-05-09T06:12:13;100439.38;;;14.93;100.00
71465;BME280;59274;49.874;9.154;2023-05-09T06:14:41;100445.25;;;14.99;100.00
71465;BME280;59274;49.874;9.154;2023-05-09T06:17:07;100436.22;;;15.05;100.00
71465;BME280;59274;49.874;9.154;2023-05-09T06:19:32;100432.59;;;15.22;100.00
71465;BME280;59274;49.874;9.154;2023-05-09T06:21:57;100432.44;;;15.51;100.00
71465;BME280;59274;49.874;9.154;2023-05-09T06:24:23;100432.28;;;15.79;100.00
71465;BME280;59274;49.874;9.154;2023-05-09T06:26:49;100440.28;;;16.08;100.00
71465;BME280;59274;49.874;9.154;2023-05-09T06:29:15;100430.94;;;16.46;100.00
71465;BME280;59274;49.874;9.154;2023-05-09T06:31:40;100426.94;;;16.54;100.00
71465;BME280;59274;49.874;9.154;2023-05-09T06:34:06;100433.41;;;16.74;100.00
71465;BME280;59274;49.874;9.154;2023-05-09T06:36:32;100427.34;;;16.90;100.00
71465;BME280;59274;49.874;9.154;2023-05-09T06:38:58;100431.72;;;16.84;100.00
71465;BME280;59274;49.874;9.154;2023-05-09T06:41:24;100439.44;;;16.93;100.00
71465;BME280;59274;49.874;9.154;2023-05-09T06:43:51;100427.47;;;16.79;100.00
71465;BME280;59274;49.874;9.154;2023-05-09T06:46:16;100438.31;;;16.90;100.00
71465;BME280;59274;49.874;9.154;2023-05-09T06:48:42;100437.72;;;16.75;100.00
71465;BME280;59274;49.874;9.154;2023-05-09T06:51:07;100426.22;;;16.84;100.00
71465;BME280;59274;49.874;9.154;2023-05-09T06:53:33;100425.34;;;16.94;100.00
71465;BME280;59274;49.874;9.154;2023-05-09T06:55:59;100416.63;;;16.99;100.00
71465;BME280;59274;49.874;9.154;2023-05-09T06:58:25;100414.28;;;17.01;100.00
71465;BME280;59274;49.874;9.154;2023-05-09T07:00:51;100403.25;;;17.05;100.00
71465;BME280;59274;49.874;9.154;2023-05-09T07:03:17;100395.75;;;17.09;100.00
71465;BME280;59274;49.874;9.154;2023-05-09T07:05:43;100397.25;;;17.13;100.00
71465;BME280;59274;49.874;9.154;2023-05-09T07:08:08;100405.84;;;17.15;100.00
71465;BME280;59274;49.874;9.154;2023-05-09T07:10:34;100395.44;;;17.30;100.00
71465;BME280;59274;49.874;9.154;2023-05-09T07:12:59;100388.31;;;17.36;100.00
71465;BME280;59274;49.874;9.154;2023-05-09T07:15:25;100394.09;;;17.42;100.00
71465;BME280;59274;49.874;9.154;2023-05-09T07:17:53;100394.31;;;17.28;100.00
71465;BME280;59274;49.874;9.154;2023-05-09T07:20:19;100393.59;;;17.50;100.00
71465;BME280;59274;49.874;9.154;2023-05-09T07:22:44;100391.06;;;17.63;100.00
71465;BME280;59274;49.874;9.154;2023-05-09T07:25:09;100381.28;;;17.85;100.00
71465;BME280;59274;49.874;9.154;2023-05-09T07:27:35;100381.81;;;18.00;100.00
71465;BME280;59274;49.874;9.154;2023-05-09T07:30:05;100378.47;;;18.12;100.00
71465;BME280;59274;49.874;9.154;2023-05-09T07:32:31;100374.53;;;18.13;100.00
71465;BME280;59274;49.874;9.154;2023-05-09T07:34:57;100382.69;;;17.97;100.00
71465;BME280;59274;49.874;9.154;2023-05-09T07:37:22;100371.19;;;18.02;100.00
71465;BME280;59274;49.874;9.154;2023-05-09T07:39:47;100362.72;;;17.93;100.00
71465;BME280;59274;49.874;9.154;2023-05-09T07:42:13;100372.44;;;17.97;100.00
71465;BME280;59274;49.874;9.154;2023-05-09T07:44:38;100362.22;;;17.98;100.00
71465;BME280;59274;49.874;9.154;2023-05-09T07:47:04;100360.09;;;18.29;100.00
71465;BME280;59274;49.874;9.154;2023-05-09T07:49:32;100361.63;;;18.53;100.00
71465;BME280;59274;49.874;9.154;2023-05-09T07:51:58;100365.50;;;18.56;100.00
71465;BME280;59274;49.874;9.154;2023-05-09T07:54:23;100354.44;;;18.79;100.00
71465;BME280;59274;49.874;9.154;2023-05-09T07:56:48;100353.69;;;18.95;95.80
71465;BME280;59274;49.874;9.154;2023-05-09T07:59:14;100358.06;;;18.92;97.53
71465;BME280;59274;49.874;9.154;2023-05-09T08:01:39;100351.91;;;19.04;96.67
71465;BME280;59274;49.874;9.154;2023-05-09T08:04:05;100358.66;;;19.20;97.31
71465;BME280;59274;49.874;9.154;2023-05-09T08:06:33;100350.84;;;19.18;94.69
71465;BME280;59274;49.874;9.154;2023-05-09T08:08:59;100342.38;;;19.09;97.13
71465;BME280;59274;49.874;9.154;2023-05-09T08:11:24;100342.19;;;19.00;97.63
71465;BME280;59274;49.874;9.154;2023-05-09T08:13:50;100340.34;;;18.93;96.30
71465;BME280;59274;49.874;9.154;2023-05-09T08:16:16;100340.94;;;18.85;96.56
71465;BME280;59274;49.874;9.154;2023-05-09T08:18:42;100329.81;;;18.72;97.88
71465;BME280;59274;49.874;9.154;2023-05-09T08:21:07;100326.91;;;18.79;96.34
71465;BME280;59274;49.874;9.154;2023-05-09T08:23:33;100323.25;;;18.66;99.85
71465;BME280;59274;49.874;9.154;2023-05-09T08:25:58;100318.94;;;18.45;98.07
71465;BME280;59274;49.874;9.154;2023-05-09T08:28:24;100309.75;;;18.52;98.09
71465;BME280;59274;49.874;9.154;2023-05-09T08:30:55;100317.03;;;18.62;96.31
71465;BME280;59274;49.874;9.154;2023-05-09T08:33:24;100316.81;;;18.72;95.11
71465;BME280;59274;49.874;9.154;2023-05-09T08:35:52;100308.69;;;18.85;94.77
71465;BME280;59274;49.874;9.154;2023-05-09T08:38:18;100306.28;;;18.48;95.71
71465;BME280;59274;49.874;9.154;2023-05-09T08:40:44;100302.78;;;18.47;96.98
71465;BME280;59274;49.874;9.154;2023-05-09T08:43:11;100299.59;;;18.49;98.73
71465;BME280;59274;49.874;9.154;2023-05-09T08:45:50;100299.28;;;18.66;97.82
71465;BME280;59274;49.874;9.154;2023-05-09T08:48:16;100291.16;;;18.59;98.10
71465;BME280;59274;49.874;9.154;2023-05-09T08:50:42;100292.41;;;18.55;98.63
71465;BME280;59274;49.874;9.154;2023-05-09T08:53:09;100300.53;;;18.62;95.83
71465;BME280;59274;49.874;9.154;2023-05-09T08:55:35;100292.91;;;18.69;96.89
71465;BME280;59274;49.874;9.154;2023-05-09T08:58:01;100286.88;;;18.58;96.32
71465;BME280;59274;49.874;9.154;2023-05-09T09:00:28;100292.56;;;18.67;96.13
71465;BME280;59274;49.874;9.154;2023-05-09T09:02:56;100285.41;;;18.70;95.11
71465;BME280;59274;49.874;9.154;2023-05-09T09:05:22;100286.44;;;18.60;97.62
71465;BME280;59274;49.874;9.154;2023-05-09T09:07:48;100285.97;;;18.81;96.05
71465;BME280;59274;49.874;9.154;2023-05-09T09:10:15;100281.47;;;18.71;96.58
71465;BME280;59274;49.874;9.154;2023-05-09T09:12:41;100270.78;;;18.57;96.41
71465;BME280;59274;49.874;9.154;2023-05-09T09:15:10;100276.66;;;18.55;98.67
71465;BME280;59274;49.874;9.154;2023-05-09T09:17:41;100268.75;;;18.61;97.95
71465;BME280;59274;49.874;9.154;2023-05-09T09:20:09;100271.63;;;18.54;97.36
71465;BME280;59274;49.874;9.154;2023-05-09T09:22:36;100261.03;;;18.52;99.68
71465;BME280;59274;49.874;9.154;2023-05-09T09:25:05;100266.69;;;18.45;100.00
71465;BME280;59274;49.874;9.154;2023-05-09T09:27:31;100268.50;;;18.52;99.75
71465;BME280;59274;49.874;9.154;2023-05-09T09:30:05;100259.56;;;18.28;99.42
71465;BME280;59274;49.874;9.154;2023-05-09T09:32:32;100257.81;;;18.37;100.00
71465;BME280;59274;49.874;9.154;2023-05-09T09:35:08;100250.94;;;18.65;100.00
71465;BME280;59274;49.874;9.154;2023-05-09T09:37:36;100247.63;;;18.74;99.13
71465;BME280;59274;49.874;9.154;2023-05-09T09:40:06;100237.84;;;18.89;99.01
71465;BME280;59274;49.874;9.154;2023-05-09T09:42:46;100237.34;;;19.10;97.81
71465;BME280;59274;49.874;9.154;2023-05-09T09:45:13;100235.84;;;19.22;95.59
71465;BME280;59274;49.874;9.154;2023-05-09T09:47:39;100229.16;;;19.23;94.01
71465;BME280;59274;49.874;9.154;2023-05-09T09:50:14;100223.03;;;19.15;96.91
71465;BME280;59274;49.874;9.154;2023-05-09T09:52:58;100228.53;;;19.32;94.99
71465;BME280;59274;49.874;9.154;2023-05-09T09:55:28;100220.13;;;19.23;96.24
71465;BME280;59274;49.874;9.154;2023-05-09T09:57:53;100214.50;;;19.42;96.43
71465;BME280;59274;49.874;9.154;2023-05-09T10:00:24;100209.25;;;19.48;95.92
71465;BME280;59274;49.874;9.154;2023-05-09T10:05:25;100201.81;;;19.61;95.91
71465;BME280;59274;49.874;9.154;2023-05-09T10:08:03;100192.69;;;19.64;90.30
71465;BME280;59274;49.874;9.154;2023-05-09T10:10:33;100197.53;;;19.89;89.68
71465;BME280;59274;49.874;9.154;2023-05-09T10:13:02;100192.72;;;20.06;90.93
71465;BME280;59274;49.874;9.154;2023-05-09T10:15:31;100187.31;;;20.02;88.13
71465;BME280;59274;49.874;9.154;2023-05-09T10:17:58;100183.38;;;20.16;85.60
71465;BME280;59274;49.874;9.154;2023-05-09T10:20:27;100183.97;;;20.36;84.76
71465;BME280;59274;49.874;9.154;2023-05-09T10:22:57;100169.31;;;20.52;87.62
71465;BME280;59274;49.874;9.154;2023-05-09T10:25:57;100162.44;;;20.56;83.75
71465;BME280;59274;49.874;9.154;2023-05-09T10:28:27;100165.59;;;21.05;83.47
71465;BME280;59274;49.874;9.154;2023-05-09T10:31:15;100154.72;;;21.36;81.35
71465;BME280;59274;49.874;9.154;2023-05-09T10:33:49;100149.25;;;21.67;78.28
71465;BME280;59274;49.874;9.154;2023-05-09T10:36:19;100143.34;;;21.56;77.24
71465;BME280;59274;49.874;9.154;2023-05-09T10:38:50;100137.38;;;21.58;74.04
71465;BME280;59274;49.874;9.154;2023-05-09T10:41:16;100138.97;;;21.68;76.86
71465;BME280;59274;49.874;9.154;2023-05-09T10:43:44;100136.78;;;21.84;73.70
71465;BME280;59274;49.874;9.154;2023-05-09T10:46:11;100128.91;;;21.74;75.17
71465;BME280;59274;49.874;9.154;2023-05-09T10:48:37;100123.03;;;21.50;77.94
71465;BME280;59274;49.874;9.154;2023-05-09T10:51:04;100120.22;;;21.63;81.04
71465;BME280;59274;49.874;9.154;2023-05-09T10:56:05;100110.91;;;22.22;76.51
71465;BME280;59274;49.874;9.154;2023-05-09T10:58:32;100105.13;;;22.07;78.88
71465;BME280;59274;49.874;9.154;2023-05-09T11:00:59;100098.50;;;22.05;76.74
71465;BME280;59274;49.874;9.154;2023-05-09T11:03:26;100093.47;;;22.12;74.67
71465;BME280;59274;49.874;9.154;2023-05-09T11:05:54;100087.38;;;22.26;75.37
71465;BME280;59274;49.874;9.154;2023-05-09T11:08:26;100085.16;;;22.43;74.20
71465;BME280;59274;49.874;9.154;2023-05-09T11:11:21;100076.44;;;22.72;70.17
71465;BME280;59274;49.874;9.154;2023-05-09T11:13:56;100064.16;;;22.73;73.11
71465;BME280;59274;49.874;9.154;2023-05-09T11:16:25;100065.38;;;22.81;67.33
71465;BME280;59274;49.874;9.154;2023-05-09T11:18:51;100061.66;;;22.66;70.01
71465;BME280;59274;49.874;9.154;2023-05-09T11:21:19;100053.34;;;22.57;72.49
71465;BME280;59274;49.874;9.154;2023-05-09T11:23:44;100057.44;;;22.34;73.94
71465;BME280;59274;49.874;9.154;2023-05-09T11:26:10;100048.88;;;22.50;75.47
71465;BME280;59274;49.874;9.154;2023-05-09T11:28:37;100044.94;;;22.88;69.17
71465;BME280;59274;49.874;9.154;2023-05-09T11:31:09;100042.03;;;22.73;66.70
71465;BME280;59274;49.874;9.154;2023-05-09T11:33:37;100030.31;;;23.06;63.35
71465;BME280;59274;49.874;9.154;2023-05-09T11:36:15;100031.50;;;23.41;62.40
71465;BME280;59274;49.874;9.154;2023-05-09T11:38:43;100027.81;;;23.35;60.92
71465;BME280;59274;49.874;9.154;2023-05-09T11:41:09;100028.88;;;23.47;60.91
71465;BME280;59274;49.874;9.154;2023-05-09T11:43:35;100028.28;;;23.33;62.41
71465;BME280;59274;49.874;9.154;2023-05-09T11:46:02;100015.78;;;23.65;62.23
71465;BME280;59274;49.874;9.154;2023-05-09T11:48:28;100003.69;;;24.10;58.34
71465;BME280;59274;49.874;9.154;2023-05-09T11:50:53;100001.03;;;24.16;61.85
71465;BME280;59274;49.874;9.154;2023-05-09T11:53:19;100001.91;;;23.98;60.17
71465;BME280;59274;49.874;9.154;2023-05-09T11:55:44;100002.41;;;23.88;59.68
71465;BME280;59274;49.874;9.154;2023-05-09T11:58:10;99989.28;;;23.97;57.71
71465;BME280;59274;49.874;9.154;2023-05-09T12:00:43;99984.69;;;24.18;56.62
71465;BME280;59274;49.874;9.154;2023-05-09T12:03:08;99986.16;;;24.37;58.53
71465;BME280;59274;49.874;9.154;2023-05-09T12:05:35;99981.78;;;24.45;57.93
71465;BME280;59274;49.874;9.154;2023-05-09T12:08:05;99980.38;;;24.50;56.52
71465;BME280;59274;49.874;9.154;2023-05-09T12:10:31;99979.28;;;24.47;55.51
71465;BME280;59274;49.874;9.154;2023-05-09T12:12:57;99973.75;;;24.47;57.02
71465;BME280;59274;49.874;9.154;2023-05-09T12:15:22;99971.38;;;24.55;55.75
71465;BME280;59274;49.874;9.154;2023-05-09T12:18:02;99963.22;;;24.51;57.60
71465;BME280;59274;49.874;9.154;2023-05-09T12:20:42;99955.31;;;25.12;60.09
71465;BME280;59274;49.874;9.154;2023-05-09T12:23:09;99949.44;;;25.40;56.31
71465;BME280;59274;49.874;9.154;2023-05-09T12:25:35;99954.72;;;25.38;52.61
71465;BME280;59274;49.874;9.154;2023-05-09T12:28:01;99947.50;;;25.75;50.84
71465;BME280;59274;49.874;9.154;2023-05-09T12:30:26;99933.94;;;25.83;50.07
71465;BME280;59274;49.874;9.154;2023-05-09T12:32:52;99930.84;;;25.95;51.30
71465;BME280;59274;49.874;9.154;2023-05-09T12:35:19;99924.41;;;25.69;47.46
71465;BME280;59274;49.874;9.154;2023-05-09T12:37:57;99923.91;;;26.05;46.89
71465;BME280;59274;49.874;9.154;2023-05-09T12:40:23;99929.22;;;25.89;49.67
71465;BME280;59274;49.874;9.154;2023-05-09T12:42:49;99907.03;;;25.94;48.43
71465;BME280;59274;49.874;9.154;2023-05-09T12:45:18;99907.78;;;25.74;51.33
71465;BME280;59274;49.874;9.154;2023-05-09T12:47:44;99910.63;;;26.35;48.58
71465;BME280;59274;49.874;9.154;2023-05-09T12:50:10;99910.91;;;26.83;45.30
71465;BME280;59274;49.874;9.154;2023-05-09T12:52:38;99896.66;;;26.15;46.10
71465;BME280;59274;49.874;9.154;2023-05-09T12:55:11;99898.56;;;26.44;43.61
71465;BME280;59274;49.874;9.154;2023-05-09T12:57:38;99894.66;;;26.56;45.21
71465;BME280;59274;49.874;9.154;2023-05-09T13:00:07;99890.53;;;26.51;43.72